Murdock, Nebraska
Current Conditions -  °F | °C
As of 1:35 PM on Thursday 30 Oct 2014 (Local Time) from KPMV Reporting Station
Clear Clear  
Wind Chill: 61°   Ceiling: Unl
Heat Index: 61°   Visibility: 10mi
Dew Point: 38°   Wind: 17mph
Humidity: 43%   Direction: 330°NNW
Pressure: 30.07"   Gusts: 26mph
Location:  40.93°N, 96.28°W
Report Text: KPMV 301835Z AUTO 33015G23KT 10SM CLR 16/04 A3007 RMK AO2 T01620035
Loading
Personal Weather Stations






























Interactive Weather Map New forecast layout! Learn more

10-Day Weather Forecast

Advertisements
Track Severe Weather on mobile